createdAt,value
2019-05-18T00:01:22.911Z,9.00
2019-05-18T00:04:18.136Z,6.57
2019-05-18T00:06:48.709Z,5.90
2019-05-18T00:09:16.101Z,5.93
2019-05-18T00:11:43.392Z,6.73
2019-05-18T00:14:19.951Z,7.43
2019-05-18T00:16:47.184Z,7.00
2019-05-18T00:19:14.362Z,6.73
2019-05-18T00:21:42.665Z,6.93
2019-05-18T00:24:10.104Z,8.00
2019-05-18T00:26:37.197Z,6.53
2019-05-18T00:29:04.475Z,6.50
2019-05-18T00:31:38.282Z,6.50
2019-05-18T00:34:15.989Z,6.03
2019-05-18T00:36:43.420Z,6.37
2019-05-18T00:39:10.735Z,9.20
2019-05-18T00:41:38.267Z,7.67
2019-05-18T00:44:05.542Z,7.30
2019-05-18T00:46:41.531Z,7.80
2019-05-18T00:49:08.682Z,6.63
2019-05-18T00:51:42.627Z,6.87
2019-05-18T00:54:10.130Z,6.63
2019-05-18T00:56:37.381Z,6.83
2019-05-18T00:59:04.637Z,7.57
2019-05-18T01:01:31.890Z,5.90
2019-05-18T01:03:59.410Z,7.97
2019-05-18T01:06:26.919Z,6.70
2019-05-18T01:08:54.320Z,6.40
2019-05-18T01:11:21.630Z,6.50
2019-05-18T01:13:48.858Z,5.80
2019-05-18T01:16:22.333Z,5.97
2019-05-18T01:18:53.556Z,6.10
2019-05-18T01:21:20.812Z,6.13
2019-05-18T01:23:48.550Z,6.60
2019-05-18T01:26:15.702Z,11.30
2019-05-18T01:28:44.111Z,6.17
2019-05-18T01:31:20.218Z,7.63
2019-05-18T01:34:00.205Z,6.07
2019-05-18T01:36:37.925Z,6.33
2019-05-18T01:39:09.735Z,5.97
2019-05-18T01:41:39.967Z,6.83
2019-05-18T01:44:07.462Z,6.57
2019-05-18T01:46:39.068Z,7.83
2019-05-18T01:49:09.587Z,6.67
2019-05-18T01:51:45.734Z,5.97
2019-05-18T01:54:16.290Z,6.37
2019-05-18T01:56:44.257Z,6.67
2019-05-18T01:59:11.926Z,6.27
2019-05-18T02:01:39.275Z,6.93
2019-05-18T02:04:06.443Z,5.50
2019-05-18T02:06:33.776Z,9.13
2019-05-18T02:09:01.461Z,5.60
2019-05-18T02:11:30.811Z,6.17
2019-05-18T02:13:58.201Z,6.40
2019-05-18T02:16:25.708Z,6.33
2019-05-18T02:18:52.969Z,8.43
2019-05-18T02:21:20.397Z,5.90
2019-05-18T02:23:47.694Z,5.67
2019-05-18T02:26:16.687Z,5.70
2019-05-18T02:28:43.920Z,6.67
2019-05-18T02:31:15.847Z,5.90
2019-05-18T02:33:43.264Z,6.27
2019-05-18T02:36:11.035Z,6.73
2019-05-18T02:38:38.301Z,5.67
2019-05-18T02:41:06.136Z,6.00
2019-05-18T02:43:33.868Z,5.47
2019-05-18T02:46:01.047Z,6.10
2019-05-18T02:48:28.515Z,5.70
2019-05-18T02:50:55.817Z,6.50
2019-05-18T02:53:23.212Z,7.60
2019-05-18T02:55:50.767Z,5.40
2019-05-18T02:58:18.037Z,7.07
2019-05-18T03:00:51.198Z,5.53
2019-05-18T03:03:18.881Z,8.43
2019-05-18T03:05:47.458Z,5.97
2019-05-18T03:08:14.829Z,5.77
2019-05-18T03:10:42.262Z,7.43
2019-05-18T03:13:09.658Z,6.00
2019-05-18T03:15:39.810Z,5.70
2019-05-18T03:18:07.163Z,6.20
2019-05-18T03:20:34.724Z,6.43
2019-05-18T03:23:02.039Z,5.83
2019-05-18T03:25:29.363Z,6.20
2019-05-18T03:27:56.584Z,5.47
2019-05-18T03:30:23.912Z,6.37
2019-05-18T03:32:53.808Z,6.17
2019-05-18T03:35:21.226Z,5.73
2019-05-18T03:37:49.014Z,6.60
2019-05-18T03:40:16.326Z,6.13
2019-05-18T03:42:43.754Z,7.90
2019-05-18T03:45:11.225Z,6.13
2019-05-18T03:47:38.423Z,5.63
2019-05-18T03:50:06.278Z,6.53
2019-05-18T03:52:35.199Z,8.33
2019-05-18T03:55:02.616Z,5.83
2019-05-18T03:57:29.965Z,9.30
2019-05-18T04:00:00.178Z,6.77
2019-05-18T04:02:27.819Z,6.33
2019-05-18T04:04:56.058Z,5.70
2019-05-18T04:07:23.740Z,5.47
2019-05-18T04:09:50.989Z,5.60
2019-05-18T04:12:18.346Z,5.90
2019-05-18T04:14:45.579Z,5.90
2019-05-18T04:17:13.675Z,6.20
2019-05-18T04:19:46.919Z,6.03
2019-05-18T04:22:12.883Z,5.70
2019-05-18T04:24:40.631Z,6.50
2019-05-18T04:27:11.164Z,5.43
2019-05-18T04:29:38.514Z,6.37
2019-05-18T04:32:05.985Z,6.77
2019-05-18T04:34:33.410Z,6.20
2019-05-18T04:37:01.098Z,6.30
2019-05-18T04:39:28.303Z,6.87
2019-05-18T04:41:55.645Z,6.83
2019-05-18T04:44:22.915Z,6.00
2019-05-18T04:46:50.452Z,5.77
2019-05-18T04:49:19.507Z,6.70
2019-05-18T04:51:46.848Z,6.20
2019-05-18T04:54:14.351Z,7.10
2019-05-18T04:56:43.013Z,5.77
2019-05-18T04:59:10.640Z,6.17
2019-05-18T05:01:37.990Z,8.30
2019-05-18T05:04:05.330Z,6.50
2019-05-18T05:06:32.887Z,6.57
2019-05-18T05:09:00.555Z,6.30
2019-05-18T05:11:28.376Z,19.00
2019-05-18T05:13:56.962Z,5.97
2019-05-18T05:16:24.078Z,6.87
2019-05-18T05:18:51.763Z,5.10
2019-05-18T05:21:19.526Z,5.73
2019-05-18T05:23:46.589Z,6.10
2019-05-18T05:26:13.829Z,5.37
2019-05-18T05:28:41.080Z,6.37
2019-05-18T05:31:08.827Z,6.67
2019-05-18T05:33:36.238Z,6.10
2019-05-18T05:36:03.842Z,5.97
2019-05-18T05:38:31.323Z,6.13
2019-05-18T05:40:59.717Z,6.47
2019-05-18T05:43:27.087Z,6.90
2019-05-18T05:45:54.632Z,6.93
2019-05-18T05:48:21.930Z,7.57
2019-05-18T05:50:49.162Z,7.37
2019-05-18T05:53:16.489Z,7.27
2019-05-18T05:55:43.854Z,6.77
2019-05-18T05:58:11.085Z,7.83
2019-05-18T06:00:38.395Z,8.60
2019-05-18T06:03:05.876Z,7.47
2019-05-18T06:05:33.377Z,7.60
2019-05-18T06:08:00.915Z,7.77
2019-05-18T06:10:28.305Z,9.30
2019-05-18T06:12:56.511Z,9.17
2019-05-18T06:15:23.739Z,7.47
2019-05-18T06:17:51.196Z,7.60
2019-05-18T06:20:18.693Z,6.97
2019-05-18T06:22:46.595Z,8.73
2019-05-18T06:25:14.351Z,7.87
2019-05-18T06:27:41.857Z,7.60
2019-05-18T06:30:09.907Z,8.37
2019-05-18T06:32:37.209Z,7.87
2019-05-18T06:35:04.793Z,7.27
2019-05-18T06:37:32.156Z,7.43
2019-05-18T06:39:59.411Z,8.20
2019-05-18T06:42:26.756Z,8.73
2019-05-18T06:44:53.921Z,7.37
2019-05-18T06:47:21.407Z,9.67
2019-05-18T06:49:48.932Z,9.50
2019-05-18T06:52:16.414Z,7.50
2019-05-18T06:54:43.785Z,9.40
2019-05-18T06:57:12.008Z,8.03
2019-05-18T06:59:39.327Z,8.70
2019-05-18T07:02:06.697Z,11.37
2019-05-18T07:04:34.225Z,10.43
2019-05-18T07:07:01.337Z,7.97
2019-05-18T07:09:28.374Z,7.77
2019-05-18T07:11:56.241Z,8.33
2019-05-18T07:14:25.681Z,7.40
2019-05-18T07:16:52.534Z,8.53
2019-05-18T07:19:19.866Z,9.67
2019-05-18T07:21:47.213Z,8.97
2019-05-18T07:24:14.453Z,9.57
2019-05-18T07:26:41.822Z,9.73
2019-05-18T07:29:08.991Z,9.80
2019-05-18T07:31:36.426Z,7.93
2019-05-18T07:34:03.697Z,9.07
2019-05-18T07:36:30.810Z,8.53
2019-05-18T07:38:58.198Z,8.57
2019-05-18T07:41:25.572Z,8.37
2019-05-18T07:43:52.921Z,10.03
2019-05-18T07:46:20.180Z,8.53
2019-05-18T07:48:47.415Z,11.67
2019-05-18T07:51:15.028Z,8.80
2019-05-18T07:53:42.221Z,8.87
2019-05-18T07:56:09.574Z,9.50
2019-05-18T07:58:36.887Z,11.70
2019-05-18T08:01:04.017Z,12.87
2019-05-18T08:03:31.658Z,9.43
2019-05-18T08:05:58.888Z,13.27
2019-05-18T08:08:25.953Z,9.63
2019-05-18T08:10:53.094Z,10.30
2019-05-18T08:13:20.300Z,8.93
2019-05-18T08:15:47.569Z,12.87
2019-05-18T08:18:14.868Z,19.83
2019-05-18T08:20:42.083Z,8.40
2019-05-18T08:23:09.438Z,10.77
2019-05-18T08:25:36.572Z,8.17
2019-05-18T08:28:03.939Z,7.83
2019-05-18T08:30:31.113Z,7.67
2019-05-18T08:32:58.276Z,9.40
2019-05-18T08:35:27.280Z,9.27
2019-05-18T08:37:54.712Z,7.23
2019-05-18T08:40:21.926Z,9.17
2019-05-18T08:42:49.109Z,9.30
2019-05-18T08:45:16.570Z,7.40
2019-05-18T08:47:43.697Z,9.47
2019-05-18T08:50:11.063Z,9.97
2019-05-18T08:52:38.309Z,9.77
2019-05-18T08:55:06.820Z,10.13
2019-05-18T08:57:34.165Z,8.93
2019-05-18T09:00:01.265Z,9.63
2019-05-18T09:02:28.347Z,9.47
2019-05-18T09:04:55.773Z,8.73
2019-05-18T09:07:22.797Z,10.07
2019-05-18T09:09:49.970Z,9.07
2019-05-18T09:12:16.989Z,8.43
2019-05-18T09:14:45.206Z,9.40
2019-05-18T09:17:12.663Z,10.43
2019-05-18T09:19:39.886Z,10.93
2019-05-18T09:22:06.966Z,7.93
2019-05-18T09:24:34.002Z,10.17
2019-05-18T09:27:01.351Z,9.43
2019-05-18T09:29:28.733Z,11.73
2019-05-18T09:31:56.278Z,11.80
2019-05-18T09:34:23.439Z,10.43
2019-05-18T09:37:19.174Z,9.77
2019-05-18T09:40:06.118Z,13.23
2019-05-18T10:45:44.981Z,5.33
2019-05-18T12:00:59.068Z,4.43
2019-05-18T12:03:28.520Z,4.73
2019-05-18T13:11:05.264Z,5.42
2019-05-18T13:13:32.190Z,3.22
2019-05-18T13:15:59.065Z,6.10
2019-05-18T13:18:26.082Z,4.00
2019-05-18T13:20:53.205Z,16.93
2019-05-18T13:23:20.099Z,3.02
2019-05-18T13:25:47.253Z,3.30
2019-05-18T13:28:14.191Z,2.35
2019-05-18T13:30:41.642Z,2.95
2019-05-18T13:33:08.679Z,2.45
2019-05-18T13:35:35.698Z,2.90
2019-05-18T13:38:02.691Z,3.70
2019-05-18T13:40:29.637Z,7.75
2019-05-18T13:42:56.593Z,3.42
2019-05-18T13:45:23.759Z,3.35
2019-05-18T13:59:57.210Z,2.90
2019-05-18T14:02:24.230Z,4.57
2019-05-18T14:04:51.131Z,3.20
2019-05-18T14:07:19.194Z,3.30
2019-05-18T14:09:46.090Z,2.60
2019-05-18T14:12:13.011Z,2.63
2019-05-18T14:14:40.329Z,2.50
2019-05-18T14:17:07.392Z,2.97
2019-05-18T14:19:34.616Z,3.00
2019-05-18T14:22:01.571Z,2.50
2019-05-18T14:24:28.411Z,2.33
2019-05-18T14:26:55.658Z,2.20
2019-05-18T14:29:22.558Z,3.37
2019-05-18T14:31:49.598Z,2.63
2019-05-18T14:34:16.831Z,2.40
2019-05-18T14:36:43.802Z,3.87
2019-05-18T14:39:11.763Z,3.23
2019-05-18T14:41:41.948Z,2.50
2019-05-18T14:44:07.441Z,2.10
2019-05-18T14:46:34.303Z,2.67
2019-05-18T14:49:01.149Z,2.73
2019-05-18T14:51:28.430Z,2.70
2019-05-18T14:53:55.359Z,2.70
2019-05-18T14:56:22.446Z,2.60
2019-05-18T14:58:49.294Z,2.50
2019-05-18T15:01:16.343Z,2.73
2019-05-18T15:03:43.423Z,2.90
2019-05-18T15:06:10.303Z,2.47
2019-05-18T15:08:37.192Z,2.23
2019-05-18T15:11:04.437Z,2.70
2019-05-18T15:13:31.422Z,3.00
2019-05-18T15:15:58.752Z,3.23
2019-05-18T15:18:25.644Z,2.70
2019-05-18T15:20:52.558Z,2.33
2019-05-18T15:23:19.521Z,2.60
2019-05-18T15:25:50.861Z,2.50
2019-05-18T15:28:15.636Z,2.60
2019-05-18T15:30:42.525Z,2.57
2019-05-18T15:33:09.814Z,2.40
2019-05-18T15:35:38.017Z,7.93
2019-05-18T15:38:05.114Z,2.47
2019-05-18T15:40:32.322Z,7.03
2019-05-18T15:42:59.566Z,3.37
2019-05-18T15:45:27.730Z,2.47
2019-05-18T15:47:54.876Z,2.93
2019-05-18T15:50:22.072Z,3.40
2019-05-18T15:52:49.196Z,2.50
2019-05-18T15:55:16.420Z,2.73
2019-05-18T15:57:43.469Z,2.40
2019-05-18T16:00:11.365Z,1.60
2019-05-18T16:02:38.405Z,1.20
2019-05-18T16:05:07.075Z,1.60
2019-05-18T16:07:34.182Z,1.30
2019-05-18T16:10:01.370Z,1.10
2019-05-18T16:12:28.579Z,1.10
2019-05-18T16:14:55.586Z,1.20
2019-05-18T16:17:36.977Z,1.87
2019-05-18T16:19:51.741Z,1.50
2019-05-18T16:22:19.120Z,1.40
2019-05-18T16:24:46.196Z,2.33
2019-05-18T16:27:13.401Z,1.57
2019-05-18T16:29:40.454Z,1.50
2019-05-18T16:32:07.679Z,3.73
2019-05-18T16:34:34.700Z,1.90
2019-05-18T16:37:02.862Z,2.30
2019-05-18T16:39:30.502Z,2.43
2019-05-18T16:41:57.655Z,3.33
2019-05-18T16:44:24.823Z,2.10
2019-05-18T16:46:52.082Z,2.00
2019-05-18T16:49:19.213Z,2.47
2019-05-18T16:51:46.508Z,2.73
2019-05-18T16:54:13.650Z,3.50
2019-05-18T16:56:41.659Z,2.87
2019-05-18T16:59:08.791Z,1.97
2019-05-18T17:01:35.878Z,3.03
2019-05-18T17:04:03.153Z,1.53
2019-05-18T17:06:30.182Z,2.17
2019-05-18T17:08:57.473Z,2.90
2019-05-18T17:11:24.727Z,3.20
2019-05-18T17:13:51.979Z,4.00
2019-05-18T17:16:19.170Z,3.10
2019-05-18T17:18:46.354Z,3.00
2019-05-18T17:21:13.681Z,3.20
2019-05-18T17:23:40.933Z,3.13
2019-05-18T17:26:08.015Z,2.47
2019-05-18T17:28:35.105Z,2.60
2019-05-18T17:31:02.317Z,2.63
2019-05-18T17:33:29.478Z,2.90
2019-05-18T17:36:00.445Z,3.87
2019-05-18T17:38:25.923Z,4.00
2019-05-18T17:40:53.057Z,3.73
2019-05-18T17:43:20.253Z,4.30
2019-05-18T17:45:47.416Z,6.83
2019-05-18T17:48:14.730Z,4.47
2019-05-18T17:50:41.908Z,4.10
2019-05-18T17:53:09.263Z,4.50
2019-05-18T17:55:36.450Z,6.60
2019-05-18T17:58:04.030Z,9.53
2019-05-18T18:00:31.106Z,11.70
2019-05-18T18:02:58.346Z,7.60
2019-05-18T18:05:25.392Z,6.47
2019-05-18T18:07:55.530Z,6.00
2019-05-18T18:10:22.510Z,6.10
2019-05-18T18:12:50.378Z,8.07
2019-05-18T18:15:17.831Z,7.37
2019-05-18T18:17:44.961Z,9.30
2019-05-18T18:20:12.391Z,9.10
2019-05-18T18:22:39.495Z,6.30
2019-05-18T18:25:06.770Z,6.90
2019-05-18T18:27:33.950Z,6.27
2019-05-18T18:30:01.183Z,7.80
2019-05-18T18:32:28.414Z,6.40
2019-05-18T18:34:55.718Z,6.40
2019-05-18T18:37:22.890Z,8.53
2019-05-18T18:39:50.092Z,5.60
2019-05-18T18:42:17.450Z,7.03
2019-05-18T18:44:44.804Z,7.70
2019-05-18T18:47:12.328Z,6.47
2019-05-18T18:49:39.485Z,5.90
2019-05-18T18:52:06.584Z,10.33
2019-05-18T18:54:33.980Z,4.63
2019-05-18T18:57:01.034Z,6.73
2019-05-18T18:59:28.071Z,7.30
2019-05-18T19:01:55.479Z,5.50
2019-05-18T19:04:22.758Z,4.77
2019-05-18T19:06:49.897Z,6.43
2019-05-18T19:09:17.171Z,7.73
2019-05-18T19:11:44.419Z,5.87
2019-05-18T19:14:11.746Z,4.47
2019-05-18T19:16:39.045Z,7.00
2019-05-18T19:19:06.160Z,4.60
2019-05-18T19:21:33.832Z,4.87
2019-05-18T19:24:00.946Z,5.10
2019-05-18T19:26:28.120Z,5.50
2019-05-18T19:28:55.502Z,5.40
2019-05-18T19:31:24.161Z,7.33
2019-05-18T19:33:51.344Z,6.57
2019-05-18T19:36:18.633Z,8.57
2019-05-18T19:38:45.840Z,5.30
2019-05-18T19:41:13.217Z,5.53
2019-05-18T19:43:40.380Z,5.87
2019-05-18T19:46:07.404Z,9.90
2019-05-18T19:48:34.458Z,5.77
2019-05-18T19:51:01.603Z,6.20
2019-05-18T19:53:28.813Z,6.60
2019-05-18T19:55:56.036Z,4.80
2019-05-18T19:58:23.204Z,5.27
2019-05-18T20:00:50.437Z,5.77
2019-05-18T20:03:17.543Z,8.40
2019-05-18T20:05:45.772Z,5.40
2019-05-18T20:08:13.121Z,6.03
2019-05-18T20:10:40.213Z,5.40
2019-05-18T20:13:07.462Z,7.33
2019-05-18T20:15:34.771Z,6.53
2019-05-18T20:18:02.099Z,6.10
2019-05-18T20:20:29.367Z,5.70
2019-05-18T20:22:57.161Z,5.17
2019-05-18T20:25:24.513Z,8.23
2019-05-18T20:27:51.915Z,8.87
2019-05-18T20:30:19.691Z,5.40
2019-05-18T20:32:46.875Z,6.10
2019-05-18T20:35:14.694Z,5.83
2019-05-18T20:37:41.990Z,5.80
2019-05-18T20:40:09.437Z,6.10
2019-05-18T20:42:37.702Z,6.33
2019-05-18T20:45:05.797Z,6.60
2019-05-18T20:47:33.379Z,7.07
2019-05-18T20:50:01.894Z,6.27
2019-05-18T20:52:29.302Z,6.70
2019-05-18T20:54:56.414Z,5.97
2019-05-18T20:57:23.675Z,6.67
2019-05-18T20:59:50.869Z,6.97
2019-05-18T21:02:18.102Z,8.60
2019-05-18T21:04:45.249Z,7.93
2019-05-18T21:07:12.558Z,8.93
2019-05-18T21:09:40.158Z,9.10
2019-05-18T21:12:07.426Z,8.83
2019-05-18T21:14:34.649Z,9.53
2019-05-18T21:17:01.995Z,8.03
2019-05-18T21:19:29.150Z,12.47
2019-05-18T21:21:56.319Z,9.83
2019-05-18T21:24:23.405Z,9.77
2019-05-18T21:26:50.682Z,8.53
2019-05-18T21:29:17.874Z,8.20
2019-05-18T21:31:45.109Z,7.70
2019-05-18T21:34:12.252Z,7.57
2019-05-18T21:36:40.000Z,9.70
2019-05-18T21:39:07.321Z,7.93
2019-05-18T21:41:34.575Z,8.60
2019-05-18T21:44:01.886Z,12.03
2019-05-18T21:46:29.334Z,8.77
2019-05-18T21:48:56.638Z,9.87
2019-05-18T21:51:23.842Z,9.43
2019-05-18T21:53:50.884Z,9.80
2019-05-18T21:56:18.006Z,10.70
2019-05-18T21:58:45.316Z,11.60
2019-05-18T22:01:12.689Z,8.73
2019-05-18T22:03:43.564Z,8.57
2019-05-18T22:06:10.345Z,9.10
2019-05-18T22:08:37.603Z,9.33
2019-05-18T22:11:04.840Z,9.77
2019-05-18T22:13:32.282Z,12.53
2019-05-18T22:15:59.642Z,10.80
2019-05-18T22:18:26.855Z,10.67
2019-05-18T22:20:54.053Z,10.67
2019-05-18T22:23:21.403Z,10.23
2019-05-18T22:25:49.178Z,10.07
2019-05-18T22:28:16.515Z,8.17
2019-05-18T22:30:44.294Z,10.27
2019-05-18T22:33:11.583Z,10.90
2019-05-18T22:35:38.786Z,12.40
2019-05-18T22:38:06.581Z,10.90
2019-05-18T22:40:33.794Z,11.27
2019-05-18T22:43:01.277Z,12.07
2019-05-18T22:45:28.374Z,14.73
2019-05-18T22:47:55.895Z,14.47
2019-05-18T22:50:23.236Z,11.37
2019-05-18T22:52:50.519Z,12.97
2019-05-18T22:55:17.798Z,12.97
2019-05-18T22:57:45.054Z,19.37
2019-05-18T23:00:12.921Z,11.37
2019-05-18T23:02:42.025Z,9.47
2019-05-18T23:05:09.226Z,8.70
2019-05-18T23:07:37.449Z,10.27
2019-05-18T23:10:04.846Z,10.13
2019-05-18T23:12:32.005Z,8.53
2019-05-18T23:14:59.282Z,8.47
2019-05-18T23:17:26.872Z,9.57
2019-05-18T23:19:54.498Z,9.40
2019-05-18T23:22:21.777Z,9.87
2019-05-18T23:24:49.337Z,11.40
2019-05-18T23:27:16.943Z,11.27
2019-05-18T23:29:44.106Z,13.10
2019-05-18T23:32:11.413Z,10.67
2019-05-18T23:34:38.691Z,12.10
2019-05-18T23:37:05.806Z,12.23
2019-05-18T23:39:33.458Z,15.10
2019-05-18T23:42:00.749Z,11.83
2019-05-18T23:44:27.805Z,12.83
2019-05-18T23:46:55.053Z,12.63
2019-05-18T23:49:22.205Z,13.10
2019-05-18T23:51:50.467Z,12.17
2019-05-18T23:54:17.742Z,11.90
2019-05-18T23:56:45.066Z,15.33
2019-05-18T23:59:12.355Z,13.90
